Aviation Digital Data Service (ADDS)

Output produced by METARs form (1626 UTC 28 July 2016)
found at http://aviationweather.gov/adds/metars/
 
KFDY 281139Z 2812/2912 06004KT P6SM SCT120 BKN250 
     FM282000 10005KT P6SM SCT070 BKN200 
     FM290400 04004KT P6SM SCT060 BKN150